Latest Coastal Weather Observations for Coolangatta (QLD)

IDN60701

Issued at 11:02 pm EST Sunday 24 May 2015 (issued every 10 minutes, with the page automatically refreshed every 10 minutes)

About coastal observations | Map of coastal stations | Coastal observations for NSW | Marine services | Other Formats
Station Details ID: 040717 Name: COOLANGATTA Lat: -28.17 Lon: 153.51 Height: 4.0 m
Data from the previous 72 hours. | See also: Recent months at Coolangatta (QLD)
Date/Time
EST
Temp

°C
Wind Pressure Rain
since 9am
mm
Weather Cloud Vis
km
Sea
Height
m
Swell
Dir
 
Speed
knots
Gust
knots
hPa Trend Height
m
Period
s
Dir
24/11:00pm 16.6 SW 7 8 1030.1 - - - Mostly clear 41 - - - -
24/10:30pm 16.8 SSW 7 10 1030.1 - 0.0 - Partly cloudy 10 - - - -
24/10:00pm 16.7 SSW 7 10 1029.9 - 0.0 - Partly cloudy 10 - - - -
24/09:30pm 17.1 SW 7 10 1030.0 - 0.0 - Partly cloudy 10 - - - -
24/09:00pm 17.0 SW 7 10 1030.0 - 0.0 - Partly cloudy 10 - - - -
24/08:30pm 17.2 SSW 6 9 1029.8 - 0.0 - Partly cloudy 10 - - - -
24/08:00pm 17.6 SSW 10 16 1029.7 - 0.0 - Cloudy 10 - - - -
24/07:30pm 17.5 SSW 8 11 1029.3 - 0.0 - Partly cloudy 10 - - - -
24/07:00pm 17.4 SSW 7 11 1029.2 - 0.0 - - 10 - - - -
24/06:30pm 17.7 SSW 8 12 1029.1 - 0.0 - Partly cloudy 10 - - - -
24/06:00pm 18.0 S 7 11 1029.0 - 0.0 - Cloudy 10 - - - -
24/05:30pm 18.2 SSW 8 11 1028.7 - 0.0 - Partly cloudy 10 - - - -
24/05:00pm 18.1 S 7 11 1028.4 - 0.0 - Partly cloudy 10 - - - -
24/04:30pm 18.8 S 9 14 1027.9 - 0.0 - Partly cloudy 10 - - - -
24/04:00pm 19.4 S 11 19 1027.6 - 0.0 - Partly cloudy 10 - - - -
24/03:30pm 19.8 S 11 19 1027.4 - 0.0 - Cloudy 10 - - - -
24/03:00pm 20.3 S 13 16 1027.4 - 0.0 - Mostly cloudy 10 - - - -
24/02:30pm 20.4 SSE 14 19 1027.3 - 0.0 - Partly cloudy 10 - - - -
24/02:00pm 21.7 S 13 19 1027.2 - 0.0 - Partly cloudy 10 - - - -
24/01:30pm 21.9 S 11 17 1026.9 - 0.0 - - 10 - - - -
24/01:00pm 21.5 S 12 19 1027.0 - 0.0 - Partly cloudy 10 - - - -
24/12:30pm 21.6 SSE 14 19 1027.3 - 0.0 - Partly cloudy 10 - - - -
24/12:00pm 21.4 S 13 19 1027.7 - 0.0 - Mostly clear 10 - - - -
24/11:30am 21.7 S 11 15 1027.9 - 0.0 - Partly cloudy 10 - - - -
24/11:00am 20.9 SSW 11 18 1028.2 - 0.0 - Partly cloudy 10 - - - -
24/10:30am 20.5 SSW 12 20 1028.4 - 0.0 - - 10 - - - -
24/10:00am 19.7 SSW 11 16 1028.5 - 0.0 - - 10 - - - -
24/09:00am 18.6 SW 10 16 1028.7 - 0.2 - - 10 - - - -
24/08:30am 18.0 SSW 10 15 1028.4 - 0.2 - Partly cloudy 10 - - - -
24/08:00am 17.3 SW 9 15 1028.0 - 0.2 - Partly cloudy 10 - - - -
24/07:30am 16.3 SSW 9 14 1027.5 - 0.2 - Partly cloudy 10 - - - -
24/07:00am 15.6 SW 9 14 1027.0 - 0.2 - - 10 - - - -
24/06:30am 15.2 SSW 11 18 1026.6 - 0.2 - - 10 - - - -
24/06:00am 15.1 SSW 10 16 1026.4 - 0.2 - - 10 - - - -
24/05:30am 15.0 SSW 11 16 1026.2 - 0.2 - - 10 - - - -
24/05:00am 15.0 SSW 9 13 1026.1 - 0.2 - - 10 - - - -
24/04:30am 14.8 SSW 9 11 1025.8 - 0.2 - - 10 - - - -
24/04:00am 15.1 SSW 9 13 1025.6 - 0.2 - - 10 - - - -
24/03:30am 15.1 SSW 9 14 1025.4 - 0.2 - - 10 - - - -
24/03:00am 15.0 SW 7 11 1025.6 - 0.2 - - 10 - - - -
24/02:30am 14.6 SW 6 9 1025.6 - 0.2 - - 10 - - - -
24/02:00am 14.6 SW 7 10 1025.5 - 0.2 - Partly cloudy 10 - - - -
24/01:30am 14.8 SSW 8 13 1025.8 - 0.2 - Partly cloudy 9 - - - -
24/01:00am 15.0 SW 7 12 1025.8 - 0.2 - Partly cloudy 10 - - - -
24/12:30am 14.8 SSW 6 8 1025.6 - 0.2 - Partly cloudy 10 - - - -
24/12:00am 14.8 SW 6 11 1025.6 - 0.2 Recent precip. Mostly cloudy 10 - - - -
 
Date/Time
EST
Temp

°C
Wind Pressure Rain
since 9am
mm
Weather Cloud Vis
km
Sea
Height
m
Swell
Dir
 
Speed
knots
Gust
knots
hPa Trend Height
m
Period
s
Dir
23/11:56pm 14.7 SW 6 9 1025.6 - 0.2 - Partly cloudy 10 - - - -
23/11:36pm 15.0 SSW 13 19 1025.9 - 0.0 - Partly cloudy 6 - - - -
23/11:30pm 15.2 SSW 13 19 1025.8 - 0.0 - Partly cloudy 10 - - - -
23/11:00pm 15.7 SSW 10 19 1025.6 - 0.0 - Partly cloudy 10 - - - -
23/10:30pm 15.6 SSW 11 15 1025.7 - 0.0 - Partly cloudy 10 - - - -
23/10:00pm 16.2 SSW 10 16 1025.8 - 0.0 - Partly cloudy 10 - - - -
23/09:30pm 16.4 SSW 11 18 1025.9 - 0.0 - Partly cloudy 10 - - - -
23/09:00pm 16.5 SSW 11 15 1025.8 - 0.0 - Mostly cloudy 10 - - - -
23/08:30pm 16.1 SW 9 15 1025.6 - 0.0 - Partly cloudy 10 - - - -
23/08:00pm 16.6 SSW 10 15 1025.6 - 0.0 - - 10 - - - -
23/07:30pm 17.0 SSW 11 17 1025.3 - 0.0 - - 10 - - - -
23/07:00pm 17.3 SSW 10 13 1024.9 - 0.0 - - 10 - - - -
23/06:30pm 17.4 SSW 10 15 1024.6 - 0.0 - - 10 - - - -
23/06:00pm 17.6 SSW 9 14 1024.5 - 0.0 - - 10 - - - -
23/05:30pm 17.8 SSW 11 16 1024.2 - 0.0 - - 10 - - - -
23/05:00pm 18.2 S 13 21 1023.8 - 0.0 - - 10 - - - -
23/04:30pm 18.9 S 11 17 1023.5 - 0.0 - - 10 - - - -
23/04:00pm 19.6 S 15 22 1023.3 - 0.0 - - 10 - - - -
23/03:30pm 20.1 S 15 26 1023.1 - 0.0 - - 10 - - - -
23/03:00pm 20.3 S 17 23 1023.0 - 0.0 - Mostly clear 10 - - - -
23/02:34pm 20.4 S 17 28 1022.8 - 0.0 - - 10 - - - -
23/02:30pm 20.3 S 18 25 1022.8 - 0.0 - - 10 - - - -
23/02:14pm 20.2 S 15 25 1022.8 - 0.0 - - 10 - - - -
23/02:00pm 20.1 S 16 21 1022.9 - 0.0 - - 10 - - - -
23/01:30pm 19.7 S 16 27 1022.8 - 0.0 - Partly cloudy 10 - - - -
23/01:02pm 20.5 S 15 25 1022.8 - 0.0 - Partly cloudy 10 - - - -
23/01:00pm 20.7 S 15 23 1022.7 - 0.0 - Partly cloudy 10 - - - -
23/12:40pm 19.8 S 16 26 1022.7 - 0.0 - Partly cloudy 10 - - - -
23/12:30pm 19.7 S 17 26 1022.9 - 0.0 - Partly cloudy 10 - - - -
23/12:08pm 20.8 S 15 25 1022.9 - 0.0 - Partly cloudy 10 - - - -
23/12:00pm 20.1 S 17 25 1023.0 - 0.0 - Mostly clear 10 - - - -
23/11:30am 20.3 S 17 23 1023.3 - 0.0 - Partly cloudy 10 - - - -
23/11:09am 20.2 S 17 27 1023.4 - 0.0 - Partly cloudy 10 - - - -
23/11:00am 20.6 S 18 26 1023.3 - 0.0 - Partly cloudy 10 - - - -
23/10:31am 20.3 S 18 28 1023.2 - 0.0 - - 10 - - - -
23/10:30am 20.3 S 18 27 1023.1 - 0.0 - - 10 - - - -
23/10:03am 19.6 S 18 28 1022.9 - 0.0 - - 10 - - - -
23/10:00am 19.5 S 18 27 1022.9 - 0.0 - - 10 - - - -
23/09:34am 19.2 S 17 27 1022.7 - 0.0 - - 10 - - - -
23/09:30am 19.0 S 18 27 1022.6 - 0.0 - - 10 - - - -
23/09:00am 18.5 S 18 25 1022.6 - 0.0 - - 10 - - - -
23/08:30am 18.3 SSW 14 21 1022.5 - 0.0 - - 10 - - - -
23/08:00am 17.1 SSW 13 19 1022.4 - 0.0 - Partly cloudy 10 - - - -
23/07:30am 16.7 SSW 12 16 1022.0 - 0.0 - Partly cloudy 10 - - - -
23/07:00am 16.5 SW 12 19 1021.4 - 0.0 - Partly cloudy 10 - - - -
23/06:30am 16.4 SSW 11 17 1021.1 - 0.0 - Cloudy 10 - - - -
23/06:00am 16.4 SSW 11 17 1020.8 - 0.0 - Partly cloudy 10 - - - -
23/05:30am 16.5 SSW 10 16 1020.2 - 0.0 - Partly cloudy 10 - - - -
23/05:00am 16.3 SW 9 14 1020.1 - 0.0 - Partly cloudy 10 - - - -
23/04:30am 16.3 SW 9 13 1019.7 - 0.0 - Partly cloudy 10 - - - -
23/04:00am 16.5 SSW 12 17 1019.6 - 0.0 - Partly cloudy 10 - - - -
23/03:30am 16.4 SSW 10 15 1019.5 - 0.0 - Partly cloudy 10 - - - -
23/03:00am 17.1 SSW 13 21 1019.3 - 0.0 - Cloudy 10 - - - -
23/02:30am 16.9 SSW 14 19 1019.1 - 0.0 - - 10 - - - -
23/02:00am 17.1 SSW 16 26 1019.0 - 0.0 - - 10 - - - -
23/01:30am 17.4 SSW 16 28 1018.7 - 0.0 - Partly cloudy 10 - - - -
23/01:00am 17.6 SSW 17 33 1018.6 - 0.0 - Partly cloudy 10 - - - -
23/12:30am 17.4 SSW 15 26 1018.3 - 0.0 - Partly cloudy 10 - - - -
23/12:29am 17.4 SSW 15 26 1018.4 - 0.0 - Partly cloudy 10 - - - -
23/12:00am 17.5 SSW 15 24 1018.3 - 0.0 - Mostly cloudy 10 - - - -
 
Date/Time
EST
Temp

°C
Wind Pressure Rain
since 9am
mm
Weather Cloud Vis
km
Sea
Height
m
Swell
Dir
 
Speed
knots
Gust
knots
hPa Trend Height
m
Period
s
Dir
22/11:44pm 17.6 SSW 15 25 1018.3 - 0.0 - Partly cloudy 10 - - - -
22/11:30pm 17.6 SSW 12 19 1018.5 - 0.0 - Partly cloudy 10 - - - -
22/11:00pm 17.9 SSW 13 21 1018.2 - 0.0 - Partly cloudy 10 - - - -
22/10:30pm 17.9 SSW 9 16 1018.3 - 0.0 - Partly cloudy 10 - - - -
22/10:00pm 17.7 SSW 9 17 1018.2 - 0.0 - Partly cloudy 10 - - - -
22/09:30pm 16.8 SSW 9 13 1017.8 - 0.0 - Partly cloudy 10 - - - -
22/09:00pm 14.0 W 3 5 1017.7 - 0.0 - Partly cloudy 10 - - - -
22/08:30pm 14.5 W 4 7 1017.5 - 0.0 - - 10 - - - -
22/08:00pm 14.7 WSW 4 8 1017.1 - 0.0 - - 10 - - - -
22/07:30pm 15.5 WSW 7 12 1016.8 - 0.0 - - 10 - - - -
22/07:00pm 15.5 W 3 7 1016.6 - 0.0 - - 10 - - - -
22/06:30pm 15.1 W 5 8 1016.0 - 0.0 - - 10 - - - -
22/06:00pm 15.1 WNW 6 8 1015.7 - 0.0 - - 10 - - - -
22/05:30pm 16.0 W 5 7 1015.3 - 0.0 - - 10 - - - -
22/05:00pm 16.8 W 4 7 1014.8 - 0.0 - - 10 - - - -
22/04:30pm 18.4 W 7 14 1014.5 - 0.0 - - 10 - - - -
22/04:00pm 19.3 SW 11 17 1014.4 - 0.0 - - 10 - - - -
22/03:30pm 19.8 SW 9 13 1014.1 - 0.0 - Partly cloudy 10 - - - -
22/03:00pm 20.5 SW 9 14 1014.0 - 0.0 - Mostly clear 10 - - - -
22/02:30pm 20.5 WSW 8 13 1013.8 - 0.0 - - 10 - - - -
22/02:00pm 19.0 S 6 10 1013.8 - 0.0 - Partly cloudy 10 - - - -
22/01:30pm 20.5 SSW 9 15 1013.8 - 0.0 - - 10 - - - -
22/01:00pm 20.6 WSW 7 12 1013.8 - 0.0 - - 10 - - - -
22/12:30pm 20.5 SW 7 11 1014.1 - 0.0 - - 10 - - - -
22/12:00pm 20.3 W 6 9 1014.5 - 0.0 - - 10 - - - -
22/11:30am 20.2 SW 8 11 1014.8 - 0.0 - - 10 - - - -
22/11:00am 19.8 WNW 7 11 1015.0 - 0.0 - - 10 - - - -
22/10:30am 19.8 WNW 9 13 1015.4 - 0.0 - - 10 - - - -
22/10:00am 19.3 WNW 10 14 1015.6 - 0.0 - - 10 - - - -
22/09:30am 19.0 WNW 8 13 1015.7 - 0.0 - - 10 - - - -
22/09:00am 18.3 NW 12 18 1015.4 - 9.6 - - 10 - - - -
22/08:30am 17.5 WNW 7 10 1015.2 - 9.6 - - 10 - - - -
22/08:00am 16.0 CALM 0 0 1015.2 - 9.6 - - 10 - - - -
22/07:30am 15.4 SSW 4 6 1015.2 - 9.6 - - 10 - - - -
22/07:25am 15.0 SW 5 7 1015.3 - 9.6 - - 10 - - - -
22/07:00am 13.5 CALM 0 0 1015.0 - 9.6 - - 0.5 - - - -
22/06:49am 14.0 CALM 0 0 1015.2 - 9.6 - - 5 - - - -
22/06:30am 14.0 E 1 3 1015.2 - 9.6 - - 10 - - - -
22/06:00am 14.6 WSW 3 4 1014.9 - 9.6 - Mostly clear 10 - - - -
22/05:30am 15.4 SW 4 5 1014.5 - 9.6 - Partly cloudy 10 - - - -
22/05:00am 15.5 SW 5 7 1014.7 - 9.6 - Partly cloudy 10 - - - -
22/04:30am 15.0 WNW 1 5 1014.7 - 9.6 - Partly cloudy 10 - - - -
22/04:00am 15.4 W 4 5 1014.4 - 9.6 - Partly cloudy 10 - - - -
22/03:30am 15.7 W 5 6 1014.6 - 9.6 - Partly cloudy 10 - - - -
22/03:00am 16.1 WSW 4 5 1014.7 - 9.6 - Cloudy 10 - - - -
22/02:30am 16.1 NW 3 4 1014.9 - 9.6 - Partly cloudy 10 - - - -
22/02:00am 16.3 W 3 4 1015.0 - 9.6 - Cloudy 10 - - - -
22/01:30am 16.4 CALM 0 0 1015.2 - 9.6 - Cloudy 10 - - - -
22/01:00am 16.5 W 3 4 1015.7 - 9.6 - Cloudy 10 - - - -
22/12:30am 16.4 NW 4 5 1016.2 - 9.6 - Partly cloudy 10 - - - -
22/12:00am 16.4 WNW 3 5 1016.3 - 9.4 - Cloudy 10 - - - -
 
Date/Time
EST
Temp

°C
Wind Pressure Rain
since 9am
mm
Weather Cloud Vis
km
Sea
Height
m
Swell
Dir
 
Speed
knots
Gust
knots
hPa Trend Height
m
Period
s
Dir
21/11:30pm 16.5 NW 4 6 1016.5 - 9.4 - Partly cloudy 10 - - - -

Other Formats:

Comma delimited format used in spreadsheet applications
http://www.bom.gov.au/fwo/IDN60701/IDN60701.94592.axf

JavaScript Object Notation format (JSON) in row-major order
http://www.bom.gov.au/fwo/IDN60701/IDN60701.94592.json